sensor_id;sensor_type;location;lat;lon;timestamp;pressure;altitude;pressure_sealevel;temperature;humidity
59829;BME280;45708;51.848;107.620;2023-12-14T00:02:18;97912.63;;;-30.79;64.30
59829;BME280;45708;51.848;107.620;2023-12-14T00:07:19;97920.31;;;-30.75;64.08
59829;BME280;45708;51.848;107.620;2023-12-14T00:12:20;97927.78;;;-30.60;64.37
59829;BME280;45708;51.848;107.620;2023-12-14T00:17:21;97926.41;;;-30.42;64.15
59829;BME280;45708;51.848;107.620;2023-12-14T00:22:21;97924.63;;;-30.30;64.40
59829;BME280;45708;51.848;107.620;2023-12-14T00:27:22;97921.78;;;-30.22;64.26
59829;BME280;45708;51.848;107.620;2023-12-14T00:32:23;97918.16;;;-30.27;64.19
59829;BME280;45708;51.848;107.620;2023-12-14T00:37:24;97948.94;;;-30.09;64.23
59829;BME280;45708;51.848;107.620;2023-12-14T00:42:25;97955.22;;;-30.14;64.23
59829;BME280;45708;51.848;107.620;2023-12-14T00:47:26;97960.19;;;-30.14;64.31
59829;BME280;45708;51.848;107.620;2023-12-14T00:52:27;97966.84;;;-30.13;64.40
59829;BME280;45708;51.848;107.620;2023-12-14T00:57:28;97963.78;;;-30.09;64.41
59829;BME280;45708;51.848;107.620;2023-12-14T01:02:29;97960.53;;;-30.08;64.33
59829;BME280;45708;51.848;107.620;2023-12-14T01:07:29;97955.34;;;-29.98;64.53
59829;BME280;45708;51.848;107.620;2023-12-14T01:12:30;97954.94;;;-29.91;64.27
59829;BME280;45708;51.848;107.620;2023-12-14T01:17:31;97951.22;;;-29.70;64.40
59829;BME280;45708;51.848;107.620;2023-12-14T01:22:32;97957.81;;;-29.55;64.36
59829;BME280;45708;51.848;107.620;2023-12-14T01:27:32;97958.25;;;-29.33;64.52
59829;BME280;45708;51.848;107.620;2023-12-14T01:32:33;97951.75;;;-29.31;64.33
59829;BME280;45708;51.848;107.620;2023-12-14T01:37:34;97952.34;;;-29.35;64.20
59829;BME280;45708;51.848;107.620;2023-12-14T01:42:35;97965.41;;;-29.23;63.92
59829;BME280;45708;51.848;107.620;2023-12-14T01:47:35;97961.47;;;-29.05;64.20
59829;BME280;45708;51.848;107.620;2023-12-14T01:52:36;97956.53;;;-28.90;64.27
59829;BME280;45708;51.848;107.620;2023-12-14T01:57:37;97962.50;;;-28.86;64.28
59829;BME280;45708;51.848;107.620;2023-12-14T02:02:38;97969.84;;;-28.88;64.23
59829;BME280;45708;51.848;107.620;2023-12-14T02:07:39;97979.19;;;-28.98;63.83
59829;BME280;45708;51.848;107.620;2023-12-14T02:12:39;97980.81;;;-29.14;63.86
59829;BME280;45708;51.848;107.620;2023-12-14T02:17:40;97975.84;;;-29.14;63.92
59829;BME280;45708;51.848;107.620;2023-12-14T02:22:51;97974.47;;;-29.09;64.14
59829;BME280;45708;51.848;107.620;2023-12-14T02:27:52;97961.38;;;-28.91;64.04
59829;BME280;45708;51.848;107.620;2023-12-14T02:32:53;97964.16;;;-28.70;64.17
59829;BME280;45708;51.848;107.620;2023-12-14T02:37:54;97950.28;;;-28.52;64.08
59829;BME280;45708;51.848;107.620;2023-12-14T02:42:58;97946.81;;;-28.39;63.91
59829;BME280;45708;51.848;107.620;2023-12-14T02:47:58;97950.06;;;-28.40;64.23
59829;BME280;45708;51.848;107.620;2023-12-14T02:52:59;97957.47;;;-28.57;64.02
59829;BME280;45708;51.848;107.620;2023-12-14T02:58:00;97937.09;;;-28.51;63.94
59829;BME280;45708;51.848;107.620;2023-12-14T03:03:01;97946.97;;;-28.04;63.99
59829;BME280;45708;51.848;107.620;2023-12-14T03:08:02;97941.88;;;-27.91;63.86
59829;BME280;45708;51.848;107.620;2023-12-14T03:13:02;97933.91;;;-27.51;63.89
59829;BME280;45708;51.848;107.620;2023-12-14T03:18:03;97917.41;;;-27.33;64.16
59829;BME280;45708;51.848;107.620;2023-12-14T03:23:04;97903.41;;;-27.14;63.86
59829;BME280;45708;51.848;107.620;2023-12-14T03:28:05;97899.16;;;-26.99;64.15
59829;BME280;45708;51.848;107.620;2023-12-14T03:33:05;97898.28;;;-26.82;64.16
59829;BME280;45708;51.848;107.620;2023-12-14T03:38:06;97893.00;;;-26.52;63.83
59829;BME280;45708;51.848;107.620;2023-12-14T03:43:09;97901.81;;;-26.41;63.82
59829;BME280;45708;51.848;107.620;2023-12-14T03:48:10;97875.78;;;-26.48;64.16
59829;BME280;45708;51.848;107.620;2023-12-14T03:53:11;97889.38;;;-26.22;64.01
59829;BME280;45708;51.848;107.620;2023-12-14T03:58:12;97868.91;;;-26.15;64.15
59829;BME280;45708;51.848;107.620;2023-12-14T04:03:13;97864.47;;;-26.22;63.88
59829;BME280;45708;51.848;107.620;2023-12-14T04:08:14;97865.34;;;-26.02;64.02
59829;BME280;45708;51.848;107.620;2023-12-14T04:13:14;97850.22;;;-25.65;64.33
59829;BME280;45708;51.848;107.620;2023-12-14T04:18:15;97855.06;;;-25.28;64.06
59829;BME280;45708;51.848;107.620;2023-12-14T04:23:16;97856.25;;;-24.99;63.95
59829;BME280;45708;51.848;107.620;2023-12-14T04:28:17;97846.44;;;-24.72;64.41
59829;BME280;45708;51.848;107.620;2023-12-14T04:33:17;97842.41;;;-24.69;63.93
59829;BME280;45708;51.848;107.620;2023-12-14T04:38:18;97829.38;;;-24.82;63.99
59829;BME280;45708;51.848;107.620;2023-12-14T04:43:19;97823.63;;;-24.81;63.99
59829;BME280;45708;51.848;107.620;2023-12-14T04:48:20;97835.75;;;-24.90;63.87
59829;BME280;45708;51.848;107.620;2023-12-14T04:53:21;97817.13;;;-25.00;63.80
59829;BME280;45708;51.848;107.620;2023-12-14T04:58:21;97804.59;;;-24.79;64.00
59829;BME280;45708;51.848;107.620;2023-12-14T05:03:24;97804.00;;;-24.50;64.35
59829;BME280;45708;51.848;107.620;2023-12-14T05:08:26;97803.03;;;-24.53;63.67
59829;BME280;45708;51.848;107.620;2023-12-14T05:13:27;97797.03;;;-24.58;63.60
59829;BME280;45708;51.848;107.620;2023-12-14T05:18:28;97786.47;;;-24.51;63.60
59829;BME280;45708;51.848;107.620;2023-12-14T05:23:29;97774.47;;;-24.38;63.23
59829;BME280;45708;51.848;107.620;2023-12-14T05:28:30;97774.25;;;-24.44;63.56
59829;BME280;45708;51.848;107.620;2023-12-14T05:33:30;97780.72;;;-24.25;63.75
59829;BME280;45708;51.848;107.620;2023-12-14T05:38:31;97784.75;;;-24.05;63.73
59829;BME280;45708;51.848;107.620;2023-12-14T05:43:32;97743.94;;;-24.30;63.59
59829;BME280;45708;51.848;107.620;2023-12-14T05:48:34;97775.75;;;-23.76;63.60
59829;BME280;45708;51.848;107.620;2023-12-14T05:53:35;97766.31;;;-23.59;63.48
59829;BME280;45708;51.848;107.620;2023-12-14T05:58:36;97788.34;;;-23.46;62.99
59829;BME280;45708;51.848;107.620;2023-12-14T06:03:42;97769.09;;;-23.48;63.73
59829;BME280;45708;51.848;107.620;2023-12-14T06:08:43;97780.19;;;-23.41;63.84
59829;BME280;45708;51.848;107.620;2023-12-14T06:13:44;97772.56;;;-23.45;63.63
59829;BME280;45708;51.848;107.620;2023-12-14T06:18:45;97778.44;;;-23.43;63.58
59829;BME280;45708;51.848;107.620;2023-12-14T06:23:45;97777.72;;;-23.13;63.41
59829;BME280;45708;51.848;107.620;2023-12-14T06:28:46;97771.75;;;-22.90;63.15
59829;BME280;45708;51.848;107.620;2023-12-14T06:33:48;97763.19;;;-22.98;63.48
59829;BME280;45708;51.848;107.620;2023-12-14T06:38:49;97764.00;;;-22.99;62.97
59829;BME280;45708;51.848;107.620;2023-12-14T06:43:50;97761.09;;;-23.11;63.15
59829;BME280;45708;51.848;107.620;2023-12-14T06:48:51;97756.31;;;-23.03;63.00
59829;BME280;45708;51.848;107.620;2023-12-14T06:53:51;97756.28;;;-23.05;63.34
59829;BME280;45708;51.848;107.620;2023-12-14T06:58:52;97752.88;;;-23.07;63.52
59829;BME280;45708;51.848;107.620;2023-12-14T07:03:53;97732.97;;;-23.31;63.14
59829;BME280;45708;51.848;107.620;2023-12-14T07:08:54;97763.75;;;-23.33;63.16
59829;BME280;45708;51.848;107.620;2023-12-14T07:13:55;97750.56;;;-23.55;62.96
59829;BME280;45708;51.848;107.620;2023-12-14T07:18:56;97752.09;;;-23.85;63.06
59829;BME280;45708;51.848;107.620;2023-12-14T07:23:57;97731.47;;;-24.03;62.99
59829;BME280;45708;51.848;107.620;2023-12-14T07:28:58;97727.50;;;-23.98;63.01
59829;BME280;45708;51.848;107.620;2023-12-14T07:33:59;97720.06;;;-23.97;63.03
59829;BME280;45708;51.848;107.620;2023-12-14T07:39:00;97721.81;;;-23.94;63.26
59829;BME280;45708;51.848;107.620;2023-12-14T07:44:01;97727.41;;;-24.01;63.07
59829;BME280;45708;51.848;107.620;2023-12-14T07:49:01;97718.09;;;-24.06;63.37
59829;BME280;45708;51.848;107.620;2023-12-14T07:54:02;97721.19;;;-24.13;63.36
59829;BME280;45708;51.848;107.620;2023-12-14T07:59:03;97716.66;;;-24.23;63.53
59829;BME280;45708;51.848;107.620;2023-12-14T08:04:04;97719.75;;;-24.31;63.18
59829;BME280;45708;51.848;107.620;2023-12-14T08:09:05;97711.03;;;-24.43;63.46
59829;BME280;45708;51.848;107.620;2023-12-14T08:14:06;97724.22;;;-24.47;63.58
59829;BME280;45708;51.848;107.620;2023-12-14T08:19:07;97732.09;;;-24.60;62.99
59829;BME280;45708;51.848;107.620;2023-12-14T08:24:08;97729.78;;;-24.78;63.31
59829;BME280;45708;51.848;107.620;2023-12-14T08:29:09;97738.19;;;-24.98;63.46
59829;BME280;45708;51.848;107.620;2023-12-14T08:34:10;97735.81;;;-25.17;63.30
59829;BME280;45708;51.848;107.620;2023-12-14T08:39:11;97742.66;;;-25.34;63.25
59829;BME280;45708;51.848;107.620;2023-12-14T08:44:11;97741.31;;;-25.47;63.35
59829;BME280;45708;51.848;107.620;2023-12-14T08:49:13;97740.28;;;-25.52;63.23
59829;BME280;45708;51.848;107.620;2023-12-14T08:54:14;97742.44;;;-25.61;63.11
59829;BME280;45708;51.848;107.620;2023-12-14T08:59:15;97741.88;;;-25.76;63.32
59829;BME280;45708;51.848;107.620;2023-12-14T09:04:15;97745.53;;;-25.87;63.21
59829;BME280;45708;51.848;107.620;2023-12-14T09:09:16;97753.34;;;-26.01;63.44
59829;BME280;45708;51.848;107.620;2023-12-14T09:14:17;97755.44;;;-26.10;63.23
59829;BME280;45708;51.848;107.620;2023-12-14T09:19:18;97761.75;;;-26.18;63.35
59829;BME280;45708;51.848;107.620;2023-12-14T09:24:19;97767.50;;;-26.19;63.80
59829;BME280;45708;51.848;107.620;2023-12-14T09:29:20;97766.31;;;-26.27;63.32
59829;BME280;45708;51.848;107.620;2023-12-14T09:34:21;97762.91;;;-26.29;63.49
59829;BME280;45708;51.848;107.620;2023-12-14T09:39:21;97763.53;;;-26.35;63.74
59829;BME280;45708;51.848;107.620;2023-12-14T09:44:22;97766.41;;;-26.45;63.80
59829;BME280;45708;51.848;107.620;2023-12-14T09:49:23;97753.41;;;-26.59;63.80
59829;BME280;45708;51.848;107.620;2023-12-14T09:54:27;97753.13;;;-26.65;63.60
59829;BME280;45708;51.848;107.620;2023-12-14T09:59:28;97752.84;;;-26.71;63.59
59829;BME280;45708;51.848;107.620;2023-12-14T10:04:32;97745.63;;;-26.84;63.61
59829;BME280;45708;51.848;107.620;2023-12-14T10:09:34;97748.50;;;-26.94;63.67
59829;BME280;45708;51.848;107.620;2023-12-14T10:14:37;97752.69;;;-26.93;63.92
59829;BME280;45708;51.848;107.620;2023-12-14T10:19:42;97753.41;;;-26.96;63.59
59829;BME280;45708;51.848;107.620;2023-12-14T10:24:44;97748.13;;;-27.03;64.22
59829;BME280;45708;51.848;107.620;2023-12-14T10:29:45;97751.00;;;-27.13;63.87
59829;BME280;45708;51.848;107.620;2023-12-14T10:34:46;97750.94;;;-27.33;63.59
59829;BME280;45708;51.848;107.620;2023-12-14T10:39:49;97747.75;;;-27.48;63.68
59829;BME280;45708;51.848;107.620;2023-12-14T10:44:52;97752.16;;;-27.60;63.87
59829;BME280;45708;51.848;107.620;2023-12-14T10:49:54;97756.00;;;-27.67;63.97
59829;BME280;45708;51.848;107.620;2023-12-14T10:55:07;97750.81;;;-27.71;63.85
59829;BME280;45708;51.848;107.620;2023-12-14T11:00:10;97745.72;;;-27.74;64.14
59829;BME280;45708;51.848;107.620;2023-12-14T11:05:12;97745.50;;;-27.79;64.04
59829;BME280;45708;51.848;107.620;2023-12-14T11:10:14;97740.00;;;-27.90;63.52
59829;BME280;45708;51.848;107.620;2023-12-14T11:15:21;97735.69;;;-27.94;64.02
59829;BME280;45708;51.848;107.620;2023-12-14T11:20:25;97728.25;;;-27.94;63.72
59829;BME280;45708;51.848;107.620;2023-12-14T11:25:27;97728.47;;;-27.89;63.75
59829;BME280;45708;51.848;107.620;2023-12-14T11:30:28;97719.25;;;-27.92;64.13
59829;BME280;45708;51.848;107.620;2023-12-14T11:35:29;97727.19;;;-27.99;63.76
59829;BME280;45708;51.848;107.620;2023-12-14T11:40:30;97727.78;;;-28.21;63.76
59829;BME280;45708;51.848;107.620;2023-12-14T11:45:31;97737.28;;;-28.30;64.03
59829;BME280;45708;51.848;107.620;2023-12-14T11:50:33;97729.78;;;-28.48;63.78
59829;BME280;45708;51.848;107.620;2023-12-14T11:55:38;97728.69;;;-28.53;64.14
59829;BME280;45708;51.848;107.620;2023-12-14T12:00:39;97720.41;;;-28.53;64.05
59829;BME280;45708;51.848;107.620;2023-12-14T12:05:48;97729.34;;;-28.57;63.88
59829;BME280;45708;51.848;107.620;2023-12-14T12:10:52;97704.63;;;-28.72;64.04
59829;BME280;45708;51.848;107.620;2023-12-14T12:15:53;97711.50;;;-28.66;64.12
59829;BME280;45708;51.848;107.620;2023-12-14T12:20:54;97727.78;;;-28.55;64.02
59829;BME280;45708;51.848;107.620;2023-12-14T12:25:54;97717.56;;;-28.61;64.06
59829;BME280;45708;51.848;107.620;2023-12-14T12:30:57;97720.84;;;-28.44;64.17
59829;BME280;45708;51.848;107.620;2023-12-14T12:35:58;97699.63;;;-28.39;64.16
59829;BME280;45708;51.848;107.620;2023-12-14T12:40:59;97715.66;;;-28.32;64.35
59829;BME280;45708;51.848;107.620;2023-12-14T12:46:00;97712.25;;;-28.34;64.31
59829;BME280;45708;51.848;107.620;2023-12-14T12:51:01;97715.50;;;-28.35;63.92
59829;BME280;45708;51.848;107.620;2023-12-14T12:56:02;97710.06;;;-28.45;63.96
59829;BME280;45708;51.848;107.620;2023-12-14T13:01:03;97723.25;;;-28.46;63.98
59829;BME280;45708;51.848;107.620;2023-12-14T13:06:04;97717.56;;;-28.61;64.30
59829;BME280;45708;51.848;107.620;2023-12-14T13:11:06;97729.19;;;-28.60;64.04
59829;BME280;45708;51.848;107.620;2023-12-14T13:16:07;97731.66;;;-28.60;64.20
59829;BME280;45708;51.848;107.620;2023-12-14T13:21:08;97734.84;;;-28.62;64.40
59829;BME280;45708;51.848;107.620;2023-12-14T13:26:09;97726.84;;;-28.73;64.10
59829;BME280;45708;51.848;107.620;2023-12-14T13:31:10;97735.44;;;-28.66;64.02
59829;BME280;45708;51.848;107.620;2023-12-14T13:36:11;97728.63;;;-28.70;64.23
59829;BME280;45708;51.848;107.620;2023-12-14T13:41:12;97705.03;;;-28.80;64.15
59829;BME280;45708;51.848;107.620;2023-12-14T13:46:12;97691.56;;;-28.85;64.13
59829;BME280;45708;51.848;107.620;2023-12-14T13:51:14;97689.97;;;-28.83;64.22
59829;BME280;45708;51.848;107.620;2023-12-14T13:56:15;97705.88;;;-28.80;64.25
59829;BME280;45708;51.848;107.620;2023-12-14T14:01:16;97699.88;;;-28.83;64.51
59829;BME280;45708;51.848;107.620;2023-12-14T14:06:18;97693.09;;;-28.87;64.09
59829;BME280;45708;51.848;107.620;2023-12-14T14:11:19;97683.03;;;-29.07;64.08
59829;BME280;45708;51.848;107.620;2023-12-14T14:16:20;97687.53;;;-29.16;63.94
59829;BME280;45708;51.848;107.620;2023-12-14T14:21:21;97676.22;;;-29.27;63.92
59829;BME280;45708;51.848;107.620;2023-12-14T14:26:22;97683.03;;;-29.23;64.25
59829;BME280;45708;51.848;107.620;2023-12-14T14:31:23;97675.78;;;-29.20;64.19
59829;BME280;45708;51.848;107.620;2023-12-14T14:36:24;97674.34;;;-29.31;64.29
59829;BME280;45708;51.848;107.620;2023-12-14T14:41:25;97643.56;;;-29.52;64.08
59829;BME280;45708;51.848;107.620;2023-12-14T14:46:26;97654.09;;;-29.40;64.17
59829;BME280;45708;51.848;107.620;2023-12-14T14:51:28;97652.13;;;-29.29;64.12
59829;BME280;45708;51.848;107.620;2023-12-14T14:56:28;97639.59;;;-29.32;64.27
59829;BME280;45708;51.848;107.620;2023-12-14T15:01:29;97639.44;;;-29.36;64.14
59829;BME280;45708;51.848;107.620;2023-12-14T15:06:30;97636.75;;;-29.40;64.23
59829;BME280;45708;51.848;107.620;2023-12-14T15:11:34;97630.94;;;-29.41;64.24
59829;BME280;45708;51.848;107.620;2023-12-14T15:16:36;97617.25;;;-29.50;64.12
59829;BME280;45708;51.848;107.620;2023-12-14T15:21:37;97608.75;;;-29.55;64.20
59829;BME280;45708;51.848;107.620;2023-12-14T15:26:38;97627.84;;;-29.53;64.24
59829;BME280;45708;51.848;107.620;2023-12-14T15:31:39;97621.56;;;-29.62;64.17
59829;BME280;45708;51.848;107.620;2023-12-14T15:36:40;97627.22;;;-29.65;64.25
59829;BME280;45708;51.848;107.620;2023-12-14T15:41:41;97618.47;;;-29.75;64.19
59829;BME280;45708;51.848;107.620;2023-12-14T15:46:41;97607.00;;;-29.89;64.14
59829;BME280;45708;51.848;107.620;2023-12-14T15:51:42;97616.88;;;-29.89;64.01
59829;BME280;45708;51.848;107.620;2023-12-14T15:56:43;97614.72;;;-29.99;64.19
59829;BME280;45708;51.848;107.620;2023-12-14T16:01:44;97624.59;;;-29.99;64.13
59829;BME280;45708;51.848;107.620;2023-12-14T16:06:45;97628.72;;;-30.00;64.19
59829;BME280;45708;51.848;107.620;2023-12-14T16:11:46;97633.28;;;-29.91;64.15
59829;BME280;45708;51.848;107.620;2023-12-14T16:16:46;97618.94;;;-29.82;64.19
59829;BME280;45708;51.848;107.620;2023-12-14T16:21:47;97601.88;;;-29.92;64.44
59829;BME280;45708;51.848;107.620;2023-12-14T16:26:48;97611.09;;;-29.89;64.16
59829;BME280;45708;51.848;107.620;2023-12-14T16:31:49;97616.72;;;-29.92;64.27
59829;BME280;45708;51.848;107.620;2023-12-14T16:36:50;97588.72;;;-30.07;64.18
59829;BME280;45708;51.848;107.620;2023-12-14T16:41:51;97605.13;;;-29.93;64.29
59829;BME280;45708;51.848;107.620;2023-12-14T16:46:52;97599.13;;;-29.82;64.39
59829;BME280;45708;51.848;107.620;2023-12-14T16:51:52;97585.66;;;-29.87;64.18
59829;BME280;45708;51.848;107.620;2023-12-14T16:56:53;97593.41;;;-29.81;64.29
59829;BME280;45708;51.848;107.620;2023-12-14T17:01:54;97581.03;;;-29.81;64.17
59829;BME280;45708;51.848;107.620;2023-12-14T17:06:56;97569.59;;;-29.79;64.41
59829;BME280;45708;51.848;107.620;2023-12-14T17:11:57;97580.72;;;-29.71;64.28
59829;BME280;45708;51.848;107.620;2023-12-14T17:16:58;97591.88;;;-29.62;64.69
59829;BME280;45708;51.848;107.620;2023-12-14T17:21:59;97577.91;;;-29.62;64.41
59829;BME280;45708;51.848;107.620;2023-12-14T17:27:00;97563.88;;;-29.78;64.13
59829;BME280;45708;51.848;107.620;2023-12-14T17:32:01;97541.59;;;-29.94;64.43
59829;BME280;45708;51.848;107.620;2023-12-14T17:37:02;97563.19;;;-29.75;64.21
59829;BME280;45708;51.848;107.620;2023-12-14T17:42:03;97557.38;;;-29.76;64.36
59829;BME280;45708;51.848;107.620;2023-12-14T17:47:04;97556.13;;;-29.84;64.17
59829;BME280;45708;51.848;107.620;2023-12-14T17:52:05;97553.34;;;-29.90;64.16
59829;BME280;45708;51.848;107.620;2023-12-14T17:57:06;97548.69;;;-30.00;64.47
59829;BME280;45708;51.848;107.620;2023-12-14T18:02:07;97546.69;;;-30.07;64.29
59829;BME280;45708;51.848;107.620;2023-12-14T18:07:08;97534.78;;;-30.14;64.27
59829;BME280;45708;51.848;107.620;2023-12-14T18:12:08;97531.06;;;-30.22;64.18
59829;BME280;45708;51.848;107.620;2023-12-14T18:17:09;97530.50;;;-30.33;64.17
59829;BME280;45708;51.848;107.620;2023-12-14T18:22:10;97531.78;;;-30.40;64.32
59829;BME280;45708;51.848;107.620;2023-12-14T18:27:11;97526.34;;;-30.49;64.43
59829;BME280;45708;51.848;107.620;2023-12-14T18:32:11;97521.09;;;-30.55;64.21
59829;BME280;45708;51.848;107.620;2023-12-14T18:37:12;97507.00;;;-30.72;64.21
59829;BME280;45708;51.848;107.620;2023-12-14T18:42:13;97511.31;;;-30.68;64.09
59829;BME280;45708;51.848;107.620;2023-12-14T18:47:14;97512.03;;;-30.71;64.16
59829;BME280;45708;51.848;107.620;2023-12-14T18:52:15;97503.00;;;-30.70;64.04
59829;BME280;45708;51.848;107.620;2023-12-14T18:57:16;97505.28;;;-30.73;64.09
59829;BME280;45708;51.848;107.620;2023-12-14T19:02:17;97496.78;;;-30.78;64.08
59829;BME280;45708;51.848;107.620;2023-12-14T19:07:18;97496.28;;;-30.87;64.36
59829;BME280;45708;51.848;107.620;2023-12-14T19:12:19;97491.69;;;-30.96;64.12
59829;BME280;45708;51.848;107.620;2023-12-14T19:17:19;97482.94;;;-31.06;64.03
59829;BME280;45708;51.848;107.620;2023-12-14T19:22:20;97475.88;;;-31.00;64.31
59829;BME280;45708;51.848;107.620;2023-12-14T19:27:21;97492.03;;;-30.90;64.20
59829;BME280;45708;51.848;107.620;2023-12-14T19:32:22;97477.75;;;-30.96;64.16
59829;BME280;45708;51.848;107.620;2023-12-14T19:37:23;97473.66;;;-30.95;64.21
59829;BME280;45708;51.848;107.620;2023-12-14T19:42:24;97476.19;;;-30.94;64.25
59829;BME280;45708;51.848;107.620;2023-12-14T19:47:25;97470.41;;;-30.94;64.14
59829;BME280;45708;51.848;107.620;2023-12-14T19:52:26;97475.50;;;-30.91;64.17
59829;BME280;45708;51.848;107.620;2023-12-14T19:57:27;97473.13;;;-30.89;64.34
59829;BME280;45708;51.848;107.620;2023-12-14T20:02:28;97464.25;;;-30.86;64.19
59829;BME280;45708;51.848;107.620;2023-12-14T20:07:29;97449.47;;;-31.01;64.17
59829;BME280;45708;51.848;107.620;2023-12-14T20:12:29;97460.97;;;-31.01;64.41
59829;BME280;45708;51.848;107.620;2023-12-14T20:17:30;97446.25;;;-31.00;64.23
59829;BME280;45708;51.848;107.620;2023-12-14T20:22:31;97440.94;;;-30.91;64.42
59829;BME280;45708;51.848;107.620;2023-12-14T20:27:32;97428.13;;;-30.84;64.20
59829;BME280;45708;51.848;107.620;2023-12-14T20:32:33;97428.97;;;-30.83;64.16
59829;BME280;45708;51.848;107.620;2023-12-14T20:37:33;97417.94;;;-30.90;64.25
59829;BME280;45708;51.848;107.620;2023-12-14T20:42:34;97416.31;;;-30.89;64.25
59829;BME280;45708;51.848;107.620;2023-12-14T20:47:35;97416.16;;;-30.93;64.13
59829;BME280;45708;51.848;107.620;2023-12-14T20:52:36;97418.56;;;-31.09;64.12
59829;BME280;45708;51.848;107.620;2023-12-14T20:57:37;97426.13;;;-31.66;64.05
59829;BME280;45708;51.848;107.620;2023-12-14T21:02:38;97417.69;;;-32.29;63.68
59829;BME280;45708;51.848;107.620;2023-12-14T21:07:39;97423.28;;;-32.59;63.54
59829;BME280;45708;51.848;107.620;2023-12-14T21:12:39;97421.44;;;-32.76;63.93
59829;BME280;45708;51.848;107.620;2023-12-14T21:17:40;97421.66;;;-32.87;63.60
59829;BME280;45708;51.848;107.620;2023-12-14T21:22:41;97411.25;;;-32.83;63.45
59829;BME280;45708;51.848;107.620;2023-12-14T21:27:42;97412.09;;;-32.54;63.78
59829;BME280;45708;51.848;107.620;2023-12-14T21:32:43;97398.13;;;-32.26;64.06
59829;BME280;45708;51.848;107.620;2023-12-14T21:37:44;97392.91;;;-32.02;63.93
59829;BME280;45708;51.848;107.620;2023-12-14T21:42:45;97385.00;;;-31.82;64.08
59829;BME280;45708;51.848;107.620;2023-12-14T21:47:46;97390.50;;;-31.86;63.87
59829;BME280;45708;51.848;107.620;2023-12-14T21:52:47;97377.31;;;-32.31;63.67
59829;BME280;45708;51.848;107.620;2023-12-14T21:57:48;97388.53;;;-32.64;63.61
59829;BME280;45708;51.848;107.620;2023-12-14T22:02:48;97396.31;;;-32.71;63.73
59829;BME280;45708;51.848;107.620;2023-12-14T22:07:49;97402.75;;;-32.73;63.69
59829;BME280;45708;51.848;107.620;2023-12-14T22:12:51;97400.56;;;-32.68;63.62
59829;BME280;45708;51.848;107.620;2023-12-14T22:17:52;97388.53;;;-32.78;63.56
59829;BME280;45708;51.848;107.620;2023-12-14T22:22:52;97391.34;;;-32.86;63.53
59829;BME280;45708;51.848;107.620;2023-12-14T22:27:53;97396.09;;;-32.89;63.55
59829;BME280;45708;51.848;107.620;2023-12-14T22:32:54;97385.72;;;-32.98;63.52
59829;BME280;45708;51.848;107.620;2023-12-14T22:37:55;97389.22;;;-33.07;63.39
59829;BME280;45708;51.848;107.620;2023-12-14T22:42:56;97379.31;;;-33.22;63.35
59829;BME280;45708;51.848;107.620;2023-12-14T22:47:56;97381.56;;;-33.25;63.61
59829;BME280;45708;51.848;107.620;2023-12-14T22:52:57;97385.81;;;-33.23;63.74
59829;BME280;45708;51.848;107.620;2023-12-14T22:57:58;97375.53;;;-33.30;63.69
59829;BME280;45708;51.848;107.620;2023-12-14T23:02:59;97364.41;;;-33.38;63.59
59829;BME280;45708;51.848;107.620;2023-12-14T23:08:00;97375.78;;;-33.40;63.25
59829;BME280;45708;51.848;107.620;2023-12-14T23:13:01;97358.94;;;-33.61;63.34
59829;BME280;45708;51.848;107.620;2023-12-14T23:18:02;97377.66;;;-33.50;63.24
59829;BME280;45708;51.848;107.620;2023-12-14T23:23:03;97383.16;;;-33.54;63.75
59829;BME280;45708;51.848;107.620;2023-12-14T23:28:04;97381.84;;;-33.62;63.19
59829;BME280;45708;51.848;107.620;2023-12-14T23:33:05;97377.63;;;-33.63;63.21
59829;BME280;45708;51.848;107.620;2023-12-14T23:38:06;97371.78;;;-33.65;63.59
59829;BME280;45708;51.848;107.620;2023-12-14T23:43:07;97377.44;;;-33.66;63.48
59829;BME280;45708;51.848;107.620;2023-12-14T23:48:08;97360.44;;;-33.76;63.27
59829;BME280;45708;51.848;107.620;2023-12-14T23:53:09;97358.66;;;-33.79;63.53
59829;BME280;45708;51.848;107.620;2023-12-14T23:58:09;97371.41;;;-33.71;63.18
